sensor_id;sensor_type;location;lat;lon;timestamp;P1;durP1;ratioP1;P2;durP2;ratioP2
48777;SDS011;34578;0.000;0.000;2023-11-18T00:03:59;11.18;;;5.78;;
48777;SDS011;34578;0.000;0.000;2023-11-18T00:09:00;8.57;;;4.35;;
48777;SDS011;34578;0.000;0.000;2023-11-18T00:14:00;10.73;;;4.57;;
48777;SDS011;34578;0.000;0.000;2023-11-18T00:19:01;8.00;;;4.90;;
48777;SDS011;34578;0.000;0.000;2023-11-18T00:24:01;12.88;;;4.72;;
48777;SDS011;34578;0.000;0.000;2023-11-18T00:29:02;11.05;;;4.30;;
48777;SDS011;34578;0.000;0.000;2023-11-18T00:34:02;10.68;;;4.50;;
48777;SDS011;34578;0.000;0.000;2023-11-18T00:39:04;9.32;;;3.95;;
48777;SDS011;34578;0.000;0.000;2023-11-18T00:44:04;9.77;;;4.00;;
48777;SDS011;34578;0.000;0.000;2023-11-18T00:49:08;8.10;;;4.30;;
48777;SDS011;34578;0.000;0.000;2023-11-18T00:54:09;10.40;;;4.87;;
48777;SDS011;34578;0.000;0.000;2023-11-18T00:59:09;6.88;;;3.92;;
48777;SDS011;34578;0.000;0.000;2023-11-18T01:04:10;11.67;;;3.73;;
48777;SDS011;34578;0.000;0.000;2023-11-18T01:09:11;8.63;;;3.50;;
48777;SDS011;34578;0.000;0.000;2023-11-18T01:14:12;9.40;;;4.30;;
48777;SDS011;34578;0.000;0.000;2023-11-18T01:19:13;8.68;;;4.20;;
48777;SDS011;34578;0.000;0.000;2023-11-18T01:24:13;10.23;;;4.57;;
48777;SDS011;34578;0.000;0.000;2023-11-18T01:29:14;6.38;;;3.65;;
48777;SDS011;34578;0.000;0.000;2023-11-18T01:34:14;7.43;;;4.47;;
48777;SDS011;34578;0.000;0.000;2023-11-18T01:39:17;8.60;;;5.13;;
48777;SDS011;34578;0.000;0.000;2023-11-18T01:44:18;9.32;;;4.30;;
48777;SDS011;34578;0.000;0.000;2023-11-18T01:49:19;7.03;;;3.95;;
48777;SDS011;34578;0.000;0.000;2023-11-18T01:54:21;6.82;;;3.65;;
48777;SDS011;34578;0.000;0.000;2023-11-18T01:59:22;10.52;;;3.97;;
48777;SDS011;34578;0.000;0.000;2023-11-18T02:04:22;6.75;;;3.97;;
48777;SDS011;34578;0.000;0.000;2023-11-18T02:09:23;6.73;;;3.53;;
48777;SDS011;34578;0.000;0.000;2023-11-18T02:14:32;6.22;;;3.28;;
48777;SDS011;34578;0.000;0.000;2023-11-18T02:19:36;5.53;;;3.15;;
48777;SDS011;34578;0.000;0.000;2023-11-18T02:24:39;5.32;;;3.55;;
48777;SDS011;34578;0.000;0.000;2023-11-18T02:29:42;6.90;;;3.03;;
48777;SDS011;34578;0.000;0.000;2023-11-18T02:34:47;5.18;;;3.05;;
48777;SDS011;34578;0.000;0.000;2023-11-18T02:39:55;7.70;;;3.50;;
48777;SDS011;34578;0.000;0.000;2023-11-18T02:45:04;11.30;;;3.90;;
48777;SDS011;34578;0.000;0.000;2023-11-18T02:50:07;10.35;;;3.00;;
48777;SDS011;34578;0.000;0.000;2023-11-18T02:55:10;7.07;;;3.13;;
48777;SDS011;34578;0.000;0.000;2023-11-18T03:00:11;6.95;;;3.38;;
48777;SDS011;34578;0.000;0.000;2023-11-18T03:05:18;7.70;;;2.90;;
48777;SDS011;34578;0.000;0.000;2023-11-18T03:10:19;5.45;;;3.35;;
48777;SDS011;34578;0.000;0.000;2023-11-18T03:15:23;7.05;;;3.33;;
48777;SDS011;34578;0.000;0.000;2023-11-18T03:20:23;9.77;;;2.70;;
48777;SDS011;34578;0.000;0.000;2023-11-18T03:25:23;8.20;;;3.10;;
48777;SDS011;34578;0.000;0.000;2023-11-18T03:30:24;12.18;;;2.95;;
48777;SDS011;34578;0.000;0.000;2023-11-18T03:35:24;8.35;;;3.20;;
48777;SDS011;34578;0.000;0.000;2023-11-18T03:40:25;11.35;;;2.63;;
48777;SDS011;34578;0.000;0.000;2023-11-18T03:45:27;5.88;;;3.15;;
48777;SDS011;34578;0.000;0.000;2023-11-18T03:50:28;5.20;;;2.73;;
48777;SDS011;34578;0.000;0.000;2023-11-18T03:55:28;4.17;;;2.67;;
48777;SDS011;34578;0.000;0.000;2023-11-18T04:00:29;3.50;;;2.30;;
48777;SDS011;34578;0.000;0.000;2023-11-18T04:05:31;4.13;;;2.30;;
48777;SDS011;34578;0.000;0.000;2023-11-18T04:10:32;3.95;;;2.58;;
48777;SDS011;34578;0.000;0.000;2023-11-18T04:15:32;3.27;;;2.07;;
48777;SDS011;34578;0.000;0.000;2023-11-18T04:20:32;2.63;;;1.60;;
48777;SDS011;34578;0.000;0.000;2023-11-18T04:25:33;2.57;;;1.90;;
48777;SDS011;34578;0.000;0.000;2023-11-18T04:30:33;3.10;;;1.80;;
48777;SDS011;34578;0.000;0.000;2023-11-18T04:35:33;3.27;;;1.60;;
48777;SDS011;34578;0.000;0.000;2023-11-18T04:40:34;1.90;;;1.30;;
48777;SDS011;34578;0.000;0.000;2023-11-18T04:45:35;3.17;;;1.63;;
48777;SDS011;34578;0.000;0.000;2023-11-18T04:50:35;2.20;;;1.20;;
48777;SDS011;34578;0.000;0.000;2023-11-18T04:55:39;1.73;;;1.27;;
48777;SDS011;34578;0.000;0.000;2023-11-18T05:00:40;3.35;;;1.30;;
48777;SDS011;34578;0.000;0.000;2023-11-18T05:05:41;2.63;;;1.92;;
48777;SDS011;34578;0.000;0.000;2023-11-18T05:10:45;1.52;;;1.20;;
48777;SDS011;34578;0.000;0.000;2023-11-18T05:15:47;2.25;;;1.20;;
48777;SDS011;34578;0.000;0.000;2023-11-18T05:20:47;2.37;;;1.40;;
48777;SDS011;34578;0.000;0.000;2023-11-18T05:25:48;2.00;;;1.23;;
48777;SDS011;34578;0.000;0.000;2023-11-18T05:30:50;1.95;;;1.05;;
48777;SDS011;34578;0.000;0.000;2023-11-18T05:35:51;2.80;;;1.00;;
48777;SDS011;34578;0.000;0.000;2023-11-18T05:40:51;2.25;;;0.95;;
48777;SDS011;34578;0.000;0.000;2023-11-18T05:46:01;2.08;;;1.50;;
48777;SDS011;34578;0.000;0.000;2023-11-18T05:51:20;2.70;;;1.30;;
48777;SDS011;34578;0.000;0.000;2023-11-18T05:56:22;1.85;;;0.98;;
48777;SDS011;34578;0.000;0.000;2023-11-18T06:01:22;2.38;;;1.20;;
48777;SDS011;34578;0.000;0.000;2023-11-18T06:06:23;2.05;;;1.00;;
48777;SDS011;34578;0.000;0.000;2023-11-18T06:11:24;3.92;;;0.90;;
48777;SDS011;34578;0.000;0.000;2023-11-18T06:16:24;2.63;;;0.80;;
48777;SDS011;34578;0.000;0.000;2023-11-18T06:21:26;1.60;;;0.82;;
48777;SDS011;34578;0.000;0.000;2023-11-18T06:26:30;2.60;;;1.05;;
48777;SDS011;34578;0.000;0.000;2023-11-18T06:31:30;1.13;;;0.63;;
48777;SDS011;34578;0.000;0.000;2023-11-18T06:36:30;1.70;;;0.60;;
48777;SDS011;34578;0.000;0.000;2023-11-18T06:41:31;1.23;;;0.82;;
48777;SDS011;34578;0.000;0.000;2023-11-18T06:46:35;0.57;;;0.40;;
48777;SDS011;34578;0.000;0.000;2023-11-18T06:51:36;2.55;;;0.70;;
48777;SDS011;34578;0.000;0.000;2023-11-18T06:56:38;1.83;;;0.60;;
48777;SDS011;34578;0.000;0.000;2023-11-18T07:01:42;1.77;;;0.90;;
48777;SDS011;34578;0.000;0.000;2023-11-18T07:06:43;1.30;;;0.65;;
48777;SDS011;34578;0.000;0.000;2023-11-18T07:11:44;1.57;;;0.70;;
48777;SDS011;34578;0.000;0.000;2023-11-18T07:16:44;0.63;;;0.47;;
48777;SDS011;34578;0.000;0.000;2023-11-18T07:21:45;2.80;;;0.68;;
48777;SDS011;34578;0.000;0.000;2023-11-18T07:26:47;0.50;;;0.40;;
48777;SDS011;34578;0.000;0.000;2023-11-18T07:31:48;1.02;;;0.60;;
48777;SDS011;34578;0.000;0.000;2023-11-18T07:36:49;0.65;;;0.45;;
48777;SDS011;34578;0.000;0.000;2023-11-18T07:41:50;0.88;;;0.50;;
48777;SDS011;34578;0.000;0.000;2023-11-18T07:46:50;2.30;;;1.03;;
48777;SDS011;34578;0.000;0.000;2023-11-18T07:51:50;1.27;;;0.67;;
48777;SDS011;34578;0.000;0.000;2023-11-18T07:56:51;0.70;;;0.60;;
48777;SDS011;34578;0.000;0.000;2023-11-18T08:01:53;1.83;;;0.43;;
48777;SDS011;34578;0.000;0.000;2023-11-18T08:06:56;1.17;;;0.68;;
48777;SDS011;34578;0.000;0.000;2023-11-18T08:11:57;1.38;;;0.60;;
48777;SDS011;34578;0.000;0.000;2023-11-18T08:16:58;2.05;;;0.85;;
48777;SDS011;34578;0.000;0.000;2023-11-18T08:22:00;1.83;;;0.90;;
48777;SDS011;34578;0.000;0.000;2023-11-18T08:27:01;1.75;;;0.90;;
48777;SDS011;34578;0.000;0.000;2023-11-18T08:32:03;0.98;;;0.70;;
48777;SDS011;34578;0.000;0.000;2023-11-18T08:37:04;1.05;;;0.85;;
48777;SDS011;34578;0.000;0.000;2023-11-18T08:42:05;1.20;;;0.80;;
48777;SDS011;34578;0.000;0.000;2023-11-18T08:47:05;1.35;;;0.80;;
48777;SDS011;34578;0.000;0.000;2023-11-18T08:52:08;1.05;;;0.77;;
48777;SDS011;34578;0.000;0.000;2023-11-18T08:57:12;2.85;;;0.63;;
48777;SDS011;34578;0.000;0.000;2023-11-18T09:02:25;0.70;;;0.52;;
48777;SDS011;34578;0.000;0.000;2023-11-18T09:07:25;1.87;;;0.90;;
48777;SDS011;34578;0.000;0.000;2023-11-18T09:12:26;3.80;;;0.98;;
48777;SDS011;34578;0.000;0.000;2023-11-18T09:17:27;1.75;;;1.10;;
48777;SDS011;34578;0.000;0.000;2023-11-18T09:22:28;1.50;;;1.23;;
48777;SDS011;34578;0.000;0.000;2023-11-18T09:27:28;6.00;;;1.70;;
48777;SDS011;34578;0.000;0.000;2023-11-18T09:32:29;4.25;;;2.00;;
48777;SDS011;34578;0.000;0.000;2023-11-18T09:37:30;3.92;;;1.45;;
48777;SDS011;34578;0.000;0.000;2023-11-18T09:42:31;4.77;;;1.93;;
48777;SDS011;34578;0.000;0.000;2023-11-18T09:47:36;6.45;;;2.28;;
48777;SDS011;34578;0.000;0.000;2023-11-18T09:52:41;5.35;;;2.53;;
48777;SDS011;34578;0.000;0.000;2023-11-18T09:57:52;4.93;;;2.88;;
48777;SDS011;34578;0.000;0.000;2023-11-18T10:02:59;4.78;;;3.03;;
48777;SDS011;34578;0.000;0.000;2023-11-18T10:08:05;8.07;;;2.88;;
48777;SDS011;34578;0.000;0.000;2023-11-18T10:13:05;4.82;;;3.00;;
48777;SDS011;34578;0.000;0.000;2023-11-18T10:18:21;5.63;;;2.83;;
48777;SDS011;34578;0.000;0.000;2023-11-18T10:23:23;4.05;;;3.60;;
48777;SDS011;34578;0.000;0.000;2023-11-18T10:33:27;6.68;;;3.80;;
48777;SDS011;34578;0.000;0.000;2023-11-18T10:38:32;7.18;;;4.10;;
48777;SDS011;34578;0.000;0.000;2023-11-18T10:43:39;5.80;;;3.38;;
48777;SDS011;34578;0.000;0.000;2023-11-18T10:48:42;5.72;;;4.75;;
48777;SDS011;34578;0.000;0.000;2023-11-18T10:53:46;9.30;;;3.42;;
48777;SDS011;34578;0.000;0.000;2023-11-18T11:04:05;5.60;;;3.75;;
48777;SDS011;34578;0.000;0.000;2023-11-18T11:09:06;7.38;;;3.80;;
48777;SDS011;34578;0.000;0.000;2023-11-18T11:14:15;5.38;;;3.47;;
48777;SDS011;34578;0.000;0.000;2023-11-18T11:19:25;7.50;;;3.88;;
48777;SDS011;34578;0.000;0.000;2023-11-18T11:25:08;8.05;;;3.53;;
48777;SDS011;34578;0.000;0.000;2023-11-18T11:35:23;9.05;;;3.17;;
48777;SDS011;34578;0.000;0.000;2023-11-18T11:40:29;6.77;;;3.30;;
48777;SDS011;34578;0.000;0.000;2023-11-18T11:45:32;3.42;;;3.13;;
48777;SDS011;34578;0.000;0.000;2023-11-18T11:50:34;4.15;;;2.92;;
48777;SDS011;34578;0.000;0.000;2023-11-18T11:55:38;7.75;;;3.60;;
48777;SDS011;34578;0.000;0.000;2023-11-18T12:00:45;3.30;;;3.00;;
48777;SDS011;34578;0.000;0.000;2023-11-18T12:05:45;4.17;;;3.03;;
48777;SDS011;34578;0.000;0.000;2023-11-18T12:10:53;5.20;;;2.92;;
48777;SDS011;34578;0.000;0.000;2023-11-18T12:15:55;9.40;;;4.60;;
48777;SDS011;34578;0.000;0.000;2023-11-18T12:21:03;6.53;;;5.18;;
48777;SDS011;34578;0.000;0.000;2023-11-18T12:26:37;5.63;;;3.40;;
48777;SDS011;34578;0.000;0.000;2023-11-18T12:31:43;11.38;;;3.72;;
48777;SDS011;34578;0.000;0.000;2023-11-18T12:37:10;6.10;;;4.45;;
48777;SDS011;34578;0.000;0.000;2023-11-18T12:42:44;7.43;;;4.25;;
48777;SDS011;34578;0.000;0.000;2023-11-18T12:47:54;12.23;;;6.20;;
48777;SDS011;34578;0.000;0.000;2023-11-18T12:52:55;5.53;;;4.97;;
48777;SDS011;34578;0.000;0.000;2023-11-18T12:57:56;9.90;;;5.85;;
48777;SDS011;34578;0.000;0.000;2023-11-18T13:02:59;6.22;;;4.78;;
48777;SDS011;34578;0.000;0.000;2023-11-18T13:08:00;12.82;;;4.40;;
48777;SDS011;34578;0.000;0.000;2023-11-18T13:13:01;8.38;;;4.45;;
48777;SDS011;34578;0.000;0.000;2023-11-18T13:18:03;7.35;;;4.07;;
48777;SDS011;34578;0.000;0.000;2023-11-18T13:23:10;6.13;;;4.50;;
48777;SDS011;34578;0.000;0.000;2023-11-18T13:28:10;8.70;;;4.38;;
48777;SDS011;34578;0.000;0.000;2023-11-18T13:33:11;8.70;;;4.15;;
48777;SDS011;34578;0.000;0.000;2023-11-18T13:38:11;4.32;;;3.83;;
48777;SDS011;34578;0.000;0.000;2023-11-18T13:43:12;6.00;;;3.83;;
48777;SDS011;34578;0.000;0.000;2023-11-18T13:48:12;7.43;;;4.78;;
48777;SDS011;34578;0.000;0.000;2023-11-18T13:53:13;8.48;;;4.03;;
48777;SDS011;34578;0.000;0.000;2023-11-18T13:58:15;6.03;;;3.88;;
48777;SDS011;34578;0.000;0.000;2023-11-18T14:03:16;3.88;;;3.40;;
48777;SDS011;34578;0.000;0.000;2023-11-18T14:08:17;4.38;;;3.47;;
48777;SDS011;34578;0.000;0.000;2023-11-18T14:13:18;6.32;;;4.47;;
48777;SDS011;34578;0.000;0.000;2023-11-18T14:18:19;3.67;;;3.38;;
48777;SDS011;34578;0.000;0.000;2023-11-18T14:23:19;3.50;;;2.77;;
48777;SDS011;34578;0.000;0.000;2023-11-18T14:28:21;4.93;;;3.30;;
48777;SDS011;34578;0.000;0.000;2023-11-18T14:33:25;3.70;;;2.88;;
48777;SDS011;34578;0.000;0.000;2023-11-18T14:38:25;4.07;;;3.00;;
48777;SDS011;34578;0.000;0.000;2023-11-18T14:43:26;2.83;;;2.63;;
48777;SDS011;34578;0.000;0.000;2023-11-18T14:48:28;4.28;;;3.28;;
48777;SDS011;34578;0.000;0.000;2023-11-18T14:53:30;3.20;;;2.78;;
48777;SDS011;34578;0.000;0.000;2023-11-18T14:58:31;2.90;;;2.57;;
48777;SDS011;34578;0.000;0.000;2023-11-18T15:03:35;3.83;;;2.85;;
48777;SDS011;34578;0.000;0.000;2023-11-18T15:08:36;3.30;;;2.67;;
48777;SDS011;34578;0.000;0.000;2023-11-18T15:13:36;3.00;;;2.72;;
48777;SDS011;34578;0.000;0.000;2023-11-18T15:18:37;3.58;;;2.80;;
48777;SDS011;34578;0.000;0.000;2023-11-18T15:23:38;2.60;;;2.40;;
48777;SDS011;34578;0.000;0.000;2023-11-18T15:28:38;2.47;;;2.20;;
48777;SDS011;34578;0.000;0.000;2023-11-18T15:33:39;3.40;;;3.07;;
48777;SDS011;34578;0.000;0.000;2023-11-18T15:38:39;2.33;;;2.00;;
48777;SDS011;34578;0.000;0.000;2023-11-18T15:43:39;2.43;;;2.20;;
48777;SDS011;34578;0.000;0.000;2023-11-18T15:48:40;2.80;;;2.30;;
48777;SDS011;34578;0.000;0.000;2023-11-18T15:53:41;2.43;;;2.17;;
48777;SDS011;34578;0.000;0.000;2023-11-18T15:58:41;3.30;;;2.38;;
48777;SDS011;34578;0.000;0.000;2023-11-18T16:03:42;2.72;;;2.40;;
48777;SDS011;34578;0.000;0.000;2023-11-18T16:08:42;3.47;;;2.20;;
48777;SDS011;34578;0.000;0.000;2023-11-18T16:13:45;2.45;;;2.25;;
48777;SDS011;34578;0.000;0.000;2023-11-18T16:18:46;2.40;;;2.17;;
48777;SDS011;34578;0.000;0.000;2023-11-18T16:23:47;2.33;;;2.13;;
48777;SDS011;34578;0.000;0.000;2023-11-18T16:28:47;2.28;;;2.05;;
48777;SDS011;34578;0.000;0.000;2023-11-18T16:33:47;3.03;;;2.03;;
48777;SDS011;34578;0.000;0.000;2023-11-18T16:38:48;2.40;;;2.20;;
48777;SDS011;34578;0.000;0.000;2023-11-18T16:43:48;3.80;;;2.30;;
48777;SDS011;34578;0.000;0.000;2023-11-18T16:48:49;3.97;;;2.23;;
48777;SDS011;34578;0.000;0.000;2023-11-18T16:53:49;4.60;;;2.90;;
48777;SDS011;34578;0.000;0.000;2023-11-18T16:58:49;4.18;;;3.53;;
48777;SDS011;34578;0.000;0.000;2023-11-18T17:03:50;4.20;;;3.57;;
48777;SDS011;34578;0.000;0.000;2023-11-18T17:08:51;4.53;;;3.13;;
48777;SDS011;34578;0.000;0.000;2023-11-18T17:13:52;6.47;;;4.72;;
48777;SDS011;34578;0.000;0.000;2023-11-18T17:18:53;4.20;;;2.60;;
48777;SDS011;34578;0.000;0.000;2023-11-18T17:23:54;4.20;;;2.92;;
48777;SDS011;34578;0.000;0.000;2023-11-18T17:28:54;3.73;;;2.47;;
48777;SDS011;34578;0.000;0.000;2023-11-18T17:33:55;2.70;;;2.50;;
48777;SDS011;34578;0.000;0.000;2023-11-18T17:38:55;4.10;;;3.50;;
48777;SDS011;34578;0.000;0.000;2023-11-18T17:43:56;5.05;;;2.83;;
48777;SDS011;34578;0.000;0.000;2023-11-18T17:48:57;2.80;;;2.60;;
48777;SDS011;34578;0.000;0.000;2023-11-18T17:53:58;3.35;;;2.40;;
48777;SDS011;34578;0.000;0.000;2023-11-18T17:58:58;2.58;;;2.35;;
48777;SDS011;34578;0.000;0.000;2023-11-18T18:03:59;3.57;;;2.53;;
48777;SDS011;34578;0.000;0.000;2023-11-18T18:08:59;3.03;;;2.60;;
48777;SDS011;34578;0.000;0.000;2023-11-18T18:13:59;2.60;;;2.17;;
48777;SDS011;34578;0.000;0.000;2023-11-18T18:19:00;2.50;;;2.23;;
48777;SDS011;34578;0.000;0.000;2023-11-18T18:24:00;3.05;;;2.13;;
48777;SDS011;34578;0.000;0.000;2023-11-18T18:29:01;3.97;;;3.57;;
48777;SDS011;34578;0.000;0.000;2023-11-18T18:34:01;8.00;;;4.93;;
48777;SDS011;34578;0.000;0.000;2023-11-18T18:39:01;7.60;;;4.50;;
48777;SDS011;34578;0.000;0.000;2023-11-18T18:44:02;5.82;;;4.28;;
48777;SDS011;34578;0.000;0.000;2023-11-18T18:49:02;9.47;;;4.17;;
48777;SDS011;34578;0.000;0.000;2023-11-18T18:54:05;8.32;;;4.50;;
48777;SDS011;34578;0.000;0.000;2023-11-18T18:59:05;10.37;;;4.53;;
48777;SDS011;34578;0.000;0.000;2023-11-18T19:04:11;18.75;;;5.57;;
48777;SDS011;34578;0.000;0.000;2023-11-18T19:09:11;9.77;;;5.53;;
48777;SDS011;34578;0.000;0.000;2023-11-18T19:14:12;14.63;;;5.03;;
48777;SDS011;34578;0.000;0.000;2023-11-18T19:19:12;14.00;;;6.73;;
48777;SDS011;34578;0.000;0.000;2023-11-18T19:24:13;15.20;;;7.65;;
48777;SDS011;34578;0.000;0.000;2023-11-18T19:29:14;9.57;;;6.65;;
48777;SDS011;34578;0.000;0.000;2023-11-18T19:34:15;14.35;;;7.78;;
48777;SDS011;34578;0.000;0.000;2023-11-18T19:39:15;11.73;;;7.67;;
48777;SDS011;34578;0.000;0.000;2023-11-18T19:44:17;10.68;;;7.32;;
48777;SDS011;34578;0.000;0.000;2023-11-18T19:49:17;12.77;;;6.33;;
48777;SDS011;34578;0.000;0.000;2023-11-18T19:54:17;14.05;;;6.35;;
48777;SDS011;34578;0.000;0.000;2023-11-18T19:59:18;13.93;;;6.63;;
48777;SDS011;34578;0.000;0.000;2023-11-18T20:04:18;10.10;;;5.60;;
48777;SDS011;34578;0.000;0.000;2023-11-18T20:09:18;15.00;;;5.93;;
48777;SDS011;34578;0.000;0.000;2023-11-18T20:14:21;10.55;;;5.63;;
48777;SDS011;34578;0.000;0.000;2023-11-18T20:19:22;11.60;;;5.40;;
48777;SDS011;34578;0.000;0.000;2023-11-18T20:24:23;9.63;;;5.27;;
48777;SDS011;34578;0.000;0.000;2023-11-18T20:29:24;13.50;;;5.00;;
48777;SDS011;34578;0.000;0.000;2023-11-18T20:34:24;7.33;;;4.80;;
48777;SDS011;34578;0.000;0.000;2023-11-18T20:39:24;8.07;;;4.97;;
48777;SDS011;34578;0.000;0.000;2023-11-18T20:44:25;10.80;;;5.10;;
48777;SDS011;34578;0.000;0.000;2023-11-18T20:49:25;7.32;;;4.55;;
48777;SDS011;34578;0.000;0.000;2023-11-18T20:54:27;6.63;;;4.07;;
48777;SDS011;34578;0.000;0.000;2023-11-18T20:59:27;6.97;;;4.45;;
48777;SDS011;34578;0.000;0.000;2023-11-18T21:04:27;6.40;;;3.60;;
48777;SDS011;34578;0.000;0.000;2023-11-18T21:09:29;4.97;;;3.80;;
48777;SDS011;34578;0.000;0.000;2023-11-18T21:14:29;6.53;;;3.67;;
48777;SDS011;34578;0.000;0.000;2023-11-18T21:19:30;6.20;;;3.78;;
48777;SDS011;34578;0.000;0.000;2023-11-18T21:24:33;7.82;;;4.05;;
48777;SDS011;34578;0.000;0.000;2023-11-18T21:29:33;7.50;;;3.97;;
48777;SDS011;34578;0.000;0.000;2023-11-18T21:34:33;8.17;;;4.63;;
48777;SDS011;34578;0.000;0.000;2023-11-18T21:39:34;14.93;;;5.87;;
48777;SDS011;34578;0.000;0.000;2023-11-18T21:44:34;16.38;;;5.30;;
48777;SDS011;34578;0.000;0.000;2023-11-18T21:49:35;14.02;;;4.28;;
48777;SDS011;34578;0.000;0.000;2023-11-18T21:54:35;15.37;;;4.10;;
48777;SDS011;34578;0.000;0.000;2023-11-18T21:59:36;11.50;;;4.30;;
48777;SDS011;34578;0.000;0.000;2023-11-18T22:04:36;22.77;;;4.35;;
48777;SDS011;34578;0.000;0.000;2023-11-18T22:09:37;11.60;;;4.47;;
48777;SDS011;34578;0.000;0.000;2023-11-18T22:14:38;14.07;;;5.68;;
48777;SDS011;34578;0.000;0.000;2023-11-18T22:19:39;13.40;;;5.03;;
48777;SDS011;34578;0.000;0.000;2023-11-18T22:24:40;9.38;;;4.25;;
48777;SDS011;34578;0.000;0.000;2023-11-18T22:29:40;11.60;;;4.32;;
48777;SDS011;34578;0.000;0.000;2023-11-18T22:34:41;14.07;;;5.03;;
48777;SDS011;34578;0.000;0.000;2023-11-18T22:39:41;10.37;;;4.07;;
48777;SDS011;34578;0.000;0.000;2023-11-18T22:44:42;6.63;;;3.53;;
48777;SDS011;34578;0.000;0.000;2023-11-18T22:49:45;14.55;;;3.67;;
48777;SDS011;34578;0.000;0.000;2023-11-18T22:54:45;7.40;;;3.83;;
48777;SDS011;34578;0.000;0.000;2023-11-18T22:59:46;8.43;;;3.22;;
48777;SDS011;34578;0.000;0.000;2023-11-18T23:04:46;7.47;;;3.30;;
48777;SDS011;34578;0.000;0.000;2023-11-18T23:09:49;7.72;;;3.67;;
48777;SDS011;34578;0.000;0.000;2023-11-18T23:14:49;5.27;;;3.50;;
48777;SDS011;34578;0.000;0.000;2023-11-18T23:19:52;8.95;;;4.60;;
48777;SDS011;34578;0.000;0.000;2023-11-18T23:24:52;8.73;;;3.20;;
48777;SDS011;34578;0.000;0.000;2023-11-18T23:29:53;6.37;;;3.63;;
48777;SDS011;34578;0.000;0.000;2023-11-18T23:34:53;10.27;;;3.20;;
48777;SDS011;34578;0.000;0.000;2023-11-18T23:39:55;7.07;;;3.67;;
48777;SDS011;34578;0.000;0.000;2023-11-18T23:44:56;6.18;;;3.42;;
48777;SDS011;34578;0.000;0.000;2023-11-18T23:49:56;7.03;;;3.70;;
48777;SDS011;34578;0.000;0.000;2023-11-18T23:54:57;6.65;;;3.55;;
48777;SDS011;34578;0.000;0.000;2023-11-18T23:59:57;4.50;;;2.93;;
